sensor_id;sensor_type;location;lat;lon;timestamp;pressure;altitude;pressure_sealevel;temperature;humidity
61109;BME280;46995;55.740;37.402;2022-09-12T00:01:56;99729.19;;;10.40;72.41
61109;BME280;46995;55.740;37.402;2022-09-12T00:04:22;99726.31;;;10.32;72.91
61109;BME280;46995;55.740;37.402;2022-09-12T00:06:48;99725.25;;;10.35;72.81
61109;BME280;46995;55.740;37.402;2022-09-12T00:09:14;99720.72;;;10.26;72.98
61109;BME280;46995;55.740;37.402;2022-09-12T00:11:44;99718.44;;;10.21;74.33
61109;BME280;46995;55.740;37.402;2022-09-12T00:14:14;99727.53;;;10.28;74.25
61109;BME280;46995;55.740;37.402;2022-09-12T00:16:41;99720.72;;;10.26;74.00
61109;BME280;46995;55.740;37.402;2022-09-12T00:19:07;99718.31;;;10.23;74.43
61109;BME280;46995;55.740;37.402;2022-09-12T00:21:35;99719.75;;;10.27;75.17
61109;BME280;46995;55.740;37.402;2022-09-12T00:24:01;99697.69;;;10.16;74.85
61109;BME280;46995;55.740;37.402;2022-09-12T00:26:27;99704.66;;;10.17;75.02
61109;BME280;46995;55.740;37.402;2022-09-12T00:28:53;99699.38;;;10.17;75.17
61109;BME280;46995;55.740;37.402;2022-09-12T00:31:21;99705.38;;;10.19;75.80
61109;BME280;46995;55.740;37.402;2022-09-12T00:33:49;99709.09;;;10.17;75.63
61109;BME280;46995;55.740;37.402;2022-09-12T00:36:17;99692.66;;;10.13;75.92
61109;BME280;46995;55.740;37.402;2022-09-12T00:38:45;99691.69;;;10.14;76.21
61109;BME280;46995;55.740;37.402;2022-09-12T00:41:35;99692.19;;;10.19;76.71
61109;BME280;46995;55.740;37.402;2022-09-12T00:44:49;99683.31;;;10.09;76.31
61109;BME280;46995;55.740;37.402;2022-09-12T00:47:03;99695.19;;;10.15;76.97
61109;BME280;46995;55.740;37.402;2022-09-12T00:49:33;99683.44;;;10.08;76.57
61109;BME280;46995;55.740;37.402;2022-09-12T00:54:35;99685.69;;;10.12;76.82
61109;BME280;46995;55.740;37.402;2022-09-12T00:57:05;99691.09;;;10.11;77.10
61109;BME280;46995;55.740;37.402;2022-09-12T00:59:40;99680.06;;;10.06;76.94
61109;BME280;46995;55.740;37.402;2022-09-12T01:02:07;99679.22;;;10.05;76.64
61109;BME280;46995;55.740;37.402;2022-09-12T01:04:35;99675.06;;;10.03;77.21
61109;BME280;46995;55.740;37.402;2022-09-12T01:07:03;99676.13;;;10.00;77.00
61109;BME280;46995;55.740;37.402;2022-09-12T01:09:31;99690.63;;;10.06;77.05
61109;BME280;46995;55.740;37.402;2022-09-12T01:11:56;99672.06;;;9.96;77.01
61109;BME280;46995;55.740;37.402;2022-09-12T01:14:23;99670.84;;;10.00;77.07
61109;BME280;46995;55.740;37.402;2022-09-12T01:16:49;99664.16;;;9.96;77.30
61109;BME280;46995;55.740;37.402;2022-09-12T01:22:18;99678.16;;;10.08;78.06
61109;BME280;46995;55.740;37.402;2022-09-12T01:25:09;99677.06;;;10.10;78.13
61109;BME280;46995;55.740;37.402;2022-09-12T01:31:11;99675.97;;;10.13;77.36
61109;BME280;46995;55.740;37.402;2022-09-12T01:36:12;99671.66;;;10.12;77.94
61109;BME280;46995;55.740;37.402;2022-09-12T01:41:49;99670.81;;;10.11;78.13
61109;BME280;46995;55.740;37.402;2022-09-12T01:47:28;99667.72;;;10.06;78.99
61109;BME280;46995;55.740;37.402;2022-09-12T01:50:04;99667.84;;;10.05;79.12
61109;BME280;46995;55.740;37.402;2022-09-12T01:55:11;99660.31;;;10.00;79.02
61109;BME280;46995;55.740;37.402;2022-09-12T01:57:54;99661.75;;;10.04;79.23
61109;BME280;46995;55.740;37.402;2022-09-12T02:00:22;99660.75;;;10.05;78.64
61109;BME280;46995;55.740;37.402;2022-09-12T02:03:07;99665.91;;;10.07;79.54
61109;BME280;46995;55.740;37.402;2022-09-12T02:05:39;99657.28;;;10.05;79.12
61109;BME280;46995;55.740;37.402;2022-09-12T02:08:14;99641.38;;;9.95;79.31
61109;BME280;46995;55.740;37.402;2022-09-12T02:10:53;99661.47;;;10.07;79.62
61109;BME280;46995;55.740;37.402;2022-09-12T02:18:51;99651.13;;;10.15;78.79
61109;BME280;46995;55.740;37.402;2022-09-12T02:21:18;99661.47;;;10.18;78.75
61109;BME280;46995;55.740;37.402;2022-09-12T02:23:52;99650.66;;;10.22;79.14
61109;BME280;46995;55.740;37.402;2022-09-12T02:26:23;99659.28;;;10.24;78.79
61109;BME280;46995;55.740;37.402;2022-09-12T02:28:52;99643.47;;;10.12;78.68
61109;BME280;46995;55.740;37.402;2022-09-12T02:39:42;99653.91;;;10.25;78.77
61109;BME280;46995;55.740;37.402;2022-09-12T02:42:08;99653.19;;;10.23;78.77
61109;BME280;46995;55.740;37.402;2022-09-12T02:44:34;99641.44;;;10.16;78.73
61109;BME280;46995;55.740;37.402;2022-09-12T02:47:10;99651.38;;;10.24;79.23
61109;BME280;46995;55.740;37.402;2022-09-12T02:49:38;99633.53;;;10.16;78.58
61109;BME280;46995;55.740;37.402;2022-09-12T02:52:03;99649.13;;;10.19;78.44
61109;BME280;46995;55.740;37.402;2022-09-12T02:54:29;99651.13;;;10.15;78.60
61109;BME280;46995;55.740;37.402;2022-09-12T02:56:55;99653.28;;;10.22;78.83
61109;BME280;46995;55.740;37.402;2022-09-12T02:59:22;99655.25;;;10.19;78.69
61109;BME280;46995;55.740;37.402;2022-09-12T03:13:14;99660.81;;;10.26;78.49
61109;BME280;46995;55.740;37.402;2022-09-12T03:20:40;99660.03;;;10.26;78.73
61109;BME280;46995;55.740;37.402;2022-09-12T03:25:52;99667.22;;;10.24;78.90
61109;BME280;46995;55.740;37.402;2022-09-12T03:28:21;99665.88;;;10.29;78.32
61109;BME280;46995;55.740;37.402;2022-09-12T03:30:48;99666.75;;;10.18;77.99
61109;BME280;46995;55.740;37.402;2022-09-12T03:33:18;99666.50;;;10.22;78.52
61109;BME280;46995;55.740;37.402;2022-09-12T03:35:44;99665.19;;;10.16;78.58
61109;BME280;46995;55.740;37.402;2022-09-12T03:38:10;99665.06;;;10.17;78.44
61109;BME280;46995;55.740;37.402;2022-09-12T03:40:37;99669.13;;;10.22;78.60
61109;BME280;46995;55.740;37.402;2022-09-12T03:43:04;99663.72;;;10.23;78.70
61109;BME280;46995;55.740;37.402;2022-09-12T03:45:30;99666.72;;;10.30;78.70
61109;BME280;46995;55.740;37.402;2022-09-12T03:47:55;99662.84;;;10.34;78.26
61109;BME280;46995;55.740;37.402;2022-09-12T03:50:21;99665.22;;;10.37;77.66
61109;BME280;46995;55.740;37.402;2022-09-12T03:52:47;99658.75;;;10.41;77.58
61109;BME280;46995;55.740;37.402;2022-09-12T03:55:13;99659.69;;;10.40;77.19
61109;BME280;46995;55.740;37.402;2022-09-12T03:57:38;99659.59;;;10.41;77.18
61109;BME280;46995;55.740;37.402;2022-09-12T04:00:04;99656.78;;;10.43;76.61
61109;BME280;46995;55.740;37.402;2022-09-12T04:02:37;99656.94;;;10.41;76.41
61109;BME280;46995;55.740;37.402;2022-09-12T04:05:03;99654.31;;;10.41;76.29
61109;BME280;46995;55.740;37.402;2022-09-12T04:07:28;99657.75;;;10.42;75.96
61109;BME280;46995;55.740;37.402;2022-09-12T04:09:54;99658.75;;;10.41;76.07
61109;BME280;46995;55.740;37.402;2022-09-12T04:12:20;99649.03;;;10.41;75.57
61109;BME280;46995;55.740;37.402;2022-09-12T04:14:46;99656.78;;;10.43;76.05
61109;BME280;46995;55.740;37.402;2022-09-12T04:17:12;99653.19;;;10.44;76.04
61109;BME280;46995;55.740;37.402;2022-09-12T04:19:38;99642.63;;;10.44;75.99
61109;BME280;46995;55.740;37.402;2022-09-12T04:22:03;99641.69;;;10.45;76.01
61109;BME280;46995;55.740;37.402;2022-09-12T04:24:29;99642.38;;;10.47;76.13
61109;BME280;46995;55.740;37.402;2022-09-12T04:26:54;99644.88;;;10.48;75.62
61109;BME280;46995;55.740;37.402;2022-09-12T04:29:20;99636.13;;;10.48;75.41
61109;BME280;46995;55.740;37.402;2022-09-12T04:31:45;99644.75;;;10.50;75.02
61109;BME280;46995;55.740;37.402;2022-09-12T04:34:11;99648.13;;;10.52;75.37
61109;BME280;46995;55.740;37.402;2022-09-12T04:36:37;99651.22;;;10.57;75.62
61109;BME280;46995;55.740;37.402;2022-09-12T04:39:05;99660.53;;;10.61;74.82
61109;BME280;46995;55.740;37.402;2022-09-12T04:41:35;99655.94;;;10.63;74.91
61109;BME280;46995;55.740;37.402;2022-09-12T04:44:06;99656.69;;;10.65;75.19
61109;BME280;46995;55.740;37.402;2022-09-12T04:46:33;99663.63;;;10.66;75.10
61109;BME280;46995;55.740;37.402;2022-09-12T04:48:59;99656.16;;;10.71;75.20
61109;BME280;46995;55.740;37.402;2022-09-12T04:51:28;99649.66;;;10.75;74.60
61109;BME280;46995;55.740;37.402;2022-09-12T04:53:57;99655.66;;;10.77;75.15
61109;BME280;46995;55.740;37.402;2022-09-12T04:56:23;99649.25;;;10.80;75.29
61109;BME280;46995;55.740;37.402;2022-09-12T04:58:48;99647.22;;;10.83;74.36
61109;BME280;46995;55.740;37.402;2022-09-12T05:01:15;99652.63;;;10.82;74.36
61109;BME280;46995;55.740;37.402;2022-09-12T05:03:42;99649.84;;;10.83;74.48
61109;BME280;46995;55.740;37.402;2022-09-12T05:06:09;99658.47;;;10.85;74.49
61109;BME280;46995;55.740;37.402;2022-09-12T05:08:35;99652.94;;;10.88;74.94
61109;BME280;46995;55.740;37.402;2022-09-12T05:11:01;99649.06;;;10.92;74.90
61109;BME280;46995;55.740;37.402;2022-09-12T05:13:29;99645.19;;;10.96;74.45
61109;BME280;46995;55.740;37.402;2022-09-12T05:15:59;99657.41;;;10.97;74.54
61109;BME280;46995;55.740;37.402;2022-09-12T05:18:24;99646.56;;;11.00;74.23
61109;BME280;46995;55.740;37.402;2022-09-12T05:20:53;99645.34;;;11.04;74.53
61109;BME280;46995;55.740;37.402;2022-09-12T05:23:20;99644.13;;;11.09;74.35
61109;BME280;46995;55.740;37.402;2022-09-12T05:25:47;99645.41;;;11.14;74.44
61109;BME280;46995;55.740;37.402;2022-09-12T05:28:14;99644.28;;;11.17;73.48
61109;BME280;46995;55.740;37.402;2022-09-12T05:30:39;99639.97;;;11.16;73.87
61109;BME280;46995;55.740;37.402;2022-09-12T05:33:04;99645.25;;;11.16;73.36
61109;BME280;46995;55.740;37.402;2022-09-12T05:35:30;99639.13;;;11.15;73.52
61109;BME280;46995;55.740;37.402;2022-09-12T05:37:57;99649.84;;;11.14;73.85
61109;BME280;46995;55.740;37.402;2022-09-12T05:40:22;99643.59;;;11.15;74.10
61109;BME280;46995;55.740;37.402;2022-09-12T05:42:48;99641.63;;;11.17;73.97
61109;BME280;46995;55.740;37.402;2022-09-12T05:45:14;99645.69;;;11.21;73.82
61109;BME280;46995;55.740;37.402;2022-09-12T05:47:39;99645.28;;;11.25;73.69
61109;BME280;46995;55.740;37.402;2022-09-12T05:50:06;99641.56;;;11.28;73.80
61109;BME280;46995;55.740;37.402;2022-09-12T05:52:35;99635.03;;;11.32;73.52
61109;BME280;46995;55.740;37.402;2022-09-12T05:55:01;99643.66;;;11.34;73.24
61109;BME280;46995;55.740;37.402;2022-09-12T05:57:28;99636.69;;;11.33;73.46
61109;BME280;46995;55.740;37.402;2022-09-12T05:59:53;99629.72;;;11.32;73.41
61109;BME280;46995;55.740;37.402;2022-09-12T06:02:19;99628.88;;;11.31;73.40
61109;BME280;46995;55.740;37.402;2022-09-12T06:04:45;99631.41;;;11.33;73.15
61109;BME280;46995;55.740;37.402;2022-09-12T06:07:10;99625.03;;;11.35;73.53
61109;BME280;46995;55.740;37.402;2022-09-12T06:09:36;99630.59;;;11.42;73.40
61109;BME280;46995;55.740;37.402;2022-09-12T06:12:02;99628.38;;;11.47;73.32
61109;BME280;46995;55.740;37.402;2022-09-12T06:14:27;99635.09;;;11.51;73.02
61109;BME280;46995;55.740;37.402;2022-09-12T06:16:54;99634.81;;;11.54;73.11
61109;BME280;46995;55.740;37.402;2022-09-12T06:19:20;99625.91;;;11.55;72.86
61109;BME280;46995;55.740;37.402;2022-09-12T06:21:47;99624.94;;;11.56;73.19
61109;BME280;46995;55.740;37.402;2022-09-12T06:24:14;99622.72;;;11.61;72.97
61109;BME280;46995;55.740;37.402;2022-09-12T06:26:40;99617.56;;;11.69;73.15
61109;BME280;46995;55.740;37.402;2022-09-12T06:29:06;99620.97;;;11.81;72.64
61109;BME280;46995;55.740;37.402;2022-09-12T06:31:34;99623.63;;;11.91;72.95
61109;BME280;46995;55.740;37.402;2022-09-12T06:34:00;99632.13;;;12.04;72.70
61109;BME280;46995;55.740;37.402;2022-09-12T06:36:27;99622.38;;;12.14;72.27
61109;BME280;46995;55.740;37.402;2022-09-12T06:38:54;99626.84;;;12.23;72.20
61109;BME280;46995;55.740;37.402;2022-09-12T06:41:21;99624.47;;;12.29;71.54
61109;BME280;46995;55.740;37.402;2022-09-12T06:43:47;99629.03;;;12.37;71.33
61109;BME280;46995;55.740;37.402;2022-09-12T06:46:12;99632.41;;;12.39;71.77
61109;BME280;46995;55.740;37.402;2022-09-12T06:48:38;99623.19;;;12.43;71.16
61109;BME280;46995;55.740;37.402;2022-09-12T06:51:11;99629.88;;;12.47;71.22
61109;BME280;46995;55.740;37.402;2022-09-12T06:53:37;99632.66;;;12.46;71.33
61109;BME280;46995;55.740;37.402;2022-09-12T06:56:04;99636.84;;;12.48;71.51
61109;BME280;46995;55.740;37.402;2022-09-12T06:58:31;99629.31;;;12.53;71.28
61109;BME280;46995;55.740;37.402;2022-09-12T07:01:01;99632.66;;;12.55;71.03
61109;BME280;46995;55.740;37.402;2022-09-12T07:03:27;99638.09;;;12.54;71.03
61109;BME280;46995;55.740;37.402;2022-09-12T07:05:53;99641.03;;;12.60;70.95
61109;BME280;46995;55.740;37.402;2022-09-12T07:08:20;99638.91;;;12.64;70.97
61109;BME280;46995;55.740;37.402;2022-09-12T07:10:45;99640.47;;;12.66;70.88
61109;BME280;46995;55.740;37.402;2022-09-12T07:13:11;99637.91;;;12.74;70.66
61109;BME280;46995;55.740;37.402;2022-09-12T07:15:38;99643.47;;;12.81;70.35
61109;BME280;46995;55.740;37.402;2022-09-12T07:18:03;99645.00;;;12.84;70.22
61109;BME280;46995;55.740;37.402;2022-09-12T07:20:29;99647.38;;;12.87;70.18
61109;BME280;46995;55.740;37.402;2022-09-12T07:22:57;99643.06;;;12.86;69.99
61109;BME280;46995;55.740;37.402;2022-09-12T07:25:23;99637.63;;;12.87;70.03
61109;BME280;46995;55.740;37.402;2022-09-12T07:27:48;99634.34;;;12.93;69.85
61109;BME280;46995;55.740;37.402;2022-09-12T07:30:14;99635.31;;;13.02;69.73
61109;BME280;46995;55.740;37.402;2022-09-12T07:32:40;99642.00;;;13.06;69.56
61109;BME280;46995;55.740;37.402;2022-09-12T07:35:05;99637.53;;;13.06;69.48
61109;BME280;46995;55.740;37.402;2022-09-12T07:37:31;99638.81;;;13.12;69.46
61109;BME280;46995;55.740;37.402;2022-09-12T07:39:57;99645.94;;;13.11;69.16
61109;BME280;46995;55.740;37.402;2022-09-12T07:42:24;99642.41;;;13.11;69.25
61109;BME280;46995;55.740;37.402;2022-09-12T07:44:49;99647.28;;;13.15;68.91
61109;BME280;46995;55.740;37.402;2022-09-12T07:47:16;99645.19;;;13.19;68.94
61109;BME280;46995;55.740;37.402;2022-09-12T07:49:42;99650.34;;;13.21;68.83
61109;BME280;46995;55.740;37.402;2022-09-12T07:52:08;99649.50;;;13.20;68.67
61109;BME280;46995;55.740;37.402;2022-09-12T07:54:33;99655.66;;;13.21;68.64
61109;BME280;46995;55.740;37.402;2022-09-12T07:56:59;99647.56;;;13.22;68.50
61109;BME280;46995;55.740;37.402;2022-09-12T07:59:25;99653.69;;;13.23;68.45
61109;BME280;46995;55.740;37.402;2022-09-12T08:01:51;99660.50;;;13.25;68.54
61109;BME280;46995;55.740;37.402;2022-09-12T08:04:17;99654.94;;;13.28;68.54
61109;BME280;46995;55.740;37.402;2022-09-12T08:06:42;99633.31;;;13.23;68.27
61109;BME280;46995;55.740;37.402;2022-09-12T08:09:08;99649.72;;;13.36;68.19
61109;BME280;46995;55.740;37.402;2022-09-12T08:11:33;99660.63;;;13.33;68.16
61109;BME280;46995;55.740;37.402;2022-09-12T08:13:59;99653.78;;;13.31;68.03
61109;BME280;46995;55.740;37.402;2022-09-12T08:16:28;99651.00;;;13.32;68.03
61109;BME280;46995;55.740;37.402;2022-09-12T08:18:54;99642.34;;;13.30;68.07
61109;BME280;46995;55.740;37.402;2022-09-12T08:21:21;99646.59;;;13.23;68.13
61109;BME280;46995;55.740;37.402;2022-09-12T08:23:50;99647.56;;;13.22;68.12
61109;BME280;46995;55.740;37.402;2022-09-12T08:26:15;99653.41;;;13.26;67.97
61109;BME280;46995;55.740;37.402;2022-09-12T08:28:42;99647.66;;;13.30;67.82
61109;BME280;46995;55.740;37.402;2022-09-12T08:31:10;99643.56;;;13.36;67.67
61109;BME280;46995;55.740;37.402;2022-09-12T08:33:36;99654.19;;;13.36;67.52
61109;BME280;46995;55.740;37.402;2022-09-12T08:36:03;99650.41;;;13.38;67.47
61109;BME280;46995;55.740;37.402;2022-09-12T08:38:30;99653.59;;;13.42;67.40
61109;BME280;46995;55.740;37.402;2022-09-12T08:41:01;99649.44;;;13.39;67.24
61109;BME280;46995;55.740;37.402;2022-09-12T08:46:17;99647.50;;;13.32;67.23
61109;BME280;46995;55.740;37.402;2022-09-12T08:48:44;99651.25;;;13.39;67.22
61109;BME280;46995;55.740;37.402;2022-09-12T08:51:11;99647.84;;;13.46;67.04
61109;BME280;46995;55.740;37.402;2022-09-12T08:53:38;99650.75;;;13.53;66.83
61109;BME280;46995;55.740;37.402;2022-09-12T08:56:04;99654.34;;;13.62;66.68
61109;BME280;46995;55.740;37.402;2022-09-12T08:58:30;99655.09;;;13.72;66.59
61109;BME280;46995;55.740;37.402;2022-09-12T09:03:44;99640.44;;;13.95;65.97
61109;BME280;46995;55.740;37.402;2022-09-12T09:06:28;99642.34;;;14.03;65.77
61109;BME280;46995;55.740;37.402;2022-09-12T09:16:40;99643.47;;;14.35;65.17
61109;BME280;46995;55.740;37.402;2022-09-12T09:21:53;99641.38;;;14.39;65.04
61109;BME280;46995;55.740;37.402;2022-09-12T09:24:22;99640.38;;;14.40;65.16
61109;BME280;46995;55.740;37.402;2022-09-12T09:29:19;99641.53;;;14.37;64.78
61109;BME280;46995;55.740;37.402;2022-09-12T09:31:46;99638.72;;;14.39;65.10
61109;BME280;46995;55.740;37.402;2022-09-12T09:34:15;99638.16;;;14.35;64.95
61109;BME280;46995;55.740;37.402;2022-09-12T09:45:02;99640.00;;;14.53;64.56
61109;BME280;46995;55.740;37.402;2022-09-12T09:47:28;99636.63;;;14.51;64.19
61109;BME280;46995;55.740;37.402;2022-09-12T09:49:54;99644.13;;;14.55;64.12
61109;BME280;46995;55.740;37.402;2022-09-12T09:52:23;99636.03;;;14.57;64.07
61109;BME280;46995;55.740;37.402;2022-09-12T09:54:51;99648.34;;;14.58;63.86
61109;BME280;46995;55.740;37.402;2022-09-12T10:00:25;99647.47;;;14.75;63.29
61109;BME280;46995;55.740;37.402;2022-09-12T10:05:27;99640.47;;;14.74;63.38
61109;BME280;46995;55.740;37.402;2022-09-12T10:07:53;99632.66;;;14.72;63.11
61109;BME280;46995;55.740;37.402;2022-09-12T10:10:19;99630.00;;;14.72;62.89
61109;BME280;46995;55.740;37.402;2022-09-12T10:12:47;99638.88;;;14.81;62.83
61109;BME280;46995;55.740;37.402;2022-09-12T10:15:23;99634.66;;;14.96;62.13
61109;BME280;46995;55.740;37.402;2022-09-12T10:17:50;99625.38;;;15.08;61.59
61109;BME280;46995;55.740;37.402;2022-09-12T10:23:02;99623.50;;;15.26;61.73
61109;BME280;46995;55.740;37.402;2022-09-12T10:25:31;99634.78;;;15.28;61.02
61109;BME280;46995;55.740;37.402;2022-09-12T10:27:58;99630.16;;;15.31;61.26
61109;BME280;46995;55.740;37.402;2022-09-12T10:30:24;99636.47;;;15.30;61.04
61109;BME280;46995;55.740;37.402;2022-09-12T10:32:53;99633.78;;;15.30;61.13
61109;BME280;46995;55.740;37.402;2022-09-12T10:38:20;99628.75;;;15.18;61.34
61109;BME280;46995;55.740;37.402;2022-09-12T10:40:39;99632.44;;;15.17;60.46
61109;BME280;46995;55.740;37.402;2022-09-12T10:46:43;99630.00;;;15.32;60.43
61109;BME280;46995;55.740;37.402;2022-09-12T10:48:51;99628.19;;;15.33;60.77
61109;BME280;46995;55.740;37.402;2022-09-12T10:53:48;99623.16;;;15.30;60.62
61109;BME280;46995;55.740;37.402;2022-09-12T10:56:35;99621.81;;;15.25;60.58
61109;BME280;46995;55.740;37.402;2022-09-12T10:59:06;99620.47;;;15.21;60.29
61109;BME280;46995;55.740;37.402;2022-09-12T11:01:45;99619.44;;;15.14;60.03
61109;BME280;46995;55.740;37.402;2022-09-12T11:12:02;99624.72;;;15.06;60.18
61109;BME280;46995;55.740;37.402;2022-09-12T11:39:47;99613.69;;;15.69;58.26
61109;BME280;46995;55.740;37.402;2022-09-12T11:42:17;99610.03;;;15.78;58.58
61109;BME280;46995;55.740;37.402;2022-09-12T11:44:46;99611.22;;;15.84;58.13
61109;BME280;46995;55.740;37.402;2022-09-12T11:47:15;99611.91;;;15.94;58.12
61109;BME280;46995;55.740;37.402;2022-09-12T11:49:44;99609.25;;;16.02;58.04
61109;BME280;46995;55.740;37.402;2022-09-12T11:52:15;99606.41;;;16.03;57.83
61109;BME280;46995;55.740;37.402;2022-09-12T11:57:28;99605.75;;;16.09;57.88
61109;BME280;46995;55.740;37.402;2022-09-12T12:02:25;99592.44;;;16.34;57.73
61109;BME280;46995;55.740;37.402;2022-09-12T12:07:31;99587.63;;;16.37;56.64
61109;BME280;46995;55.740;37.402;2022-09-12T12:10:00;99581.78;;;16.34;57.43
61109;BME280;46995;55.740;37.402;2022-09-12T12:12:26;99572.94;;;16.33;57.37
61109;BME280;46995;55.740;37.402;2022-09-12T12:14:53;99592.13;;;16.37;56.64
61109;BME280;46995;55.740;37.402;2022-09-12T12:17:20;99586.94;;;16.35;56.74
61109;BME280;46995;55.740;37.402;2022-09-12T12:19:47;99582.78;;;16.33;56.90
61109;BME280;46995;55.740;37.402;2022-09-12T12:22:21;99580.44;;;16.30;56.34
61109;BME280;46995;55.740;37.402;2022-09-12T12:27:23;99583.44;;;16.59;56.11
61109;BME280;46995;55.740;37.402;2022-09-12T12:29:49;99579.59;;;17.25;54.96
61109;BME280;46995;55.740;37.402;2022-09-12T12:34:44;99576.75;;;17.57;54.57
61109;BME280;46995;55.740;37.402;2022-09-12T12:50:21;99576.28;;;16.11;56.23
61109;BME280;46995;55.740;37.402;2022-09-12T12:57:48;99577.22;;;15.53;56.54
61109;BME280;46995;55.740;37.402;2022-09-12T13:02:51;99578.66;;;15.48;56.69
61109;BME280;46995;55.740;37.402;2022-09-12T13:05:21;99574.00;;;15.50;55.90
61109;BME280;46995;55.740;37.402;2022-09-12T13:07:55;99563.72;;;15.55;55.96
61109;BME280;46995;55.740;37.402;2022-09-12T13:10:26;99567.69;;;15.51;55.95
61109;BME280;46995;55.740;37.402;2022-09-12T13:12:59;99580.34;;;15.49;55.97
61109;BME280;46995;55.740;37.402;2022-09-12T13:17:59;99568.66;;;15.42;56.22
61109;BME280;46995;55.740;37.402;2022-09-12T13:20:30;99565.94;;;15.34;56.33
61109;BME280;46995;55.740;37.402;2022-09-12T13:22:59;99568.75;;;15.24;56.12
61109;BME280;46995;55.740;37.402;2022-09-12T13:28:13;99569.22;;;15.19;56.24
61109;BME280;46995;55.740;37.402;2022-09-12T13:30:41;99571.94;;;15.27;55.95
61109;BME280;46995;55.740;37.402;2022-09-12T13:33:09;99565.94;;;15.34;56.04
61109;BME280;46995;55.740;37.402;2022-09-12T13:43:24;99565.22;;;15.15;55.81
61109;BME280;46995;55.740;37.402;2022-09-12T13:45:55;99561.25;;;15.11;55.76
61109;BME280;46995;55.740;37.402;2022-09-12T13:48:22;99560.88;;;15.06;55.76
61109;BME280;46995;55.740;37.402;2022-09-12T13:50:50;99569.28;;;14.94;56.09
61109;BME280;46995;55.740;37.402;2022-09-12T13:53:18;99560.75;;;14.82;56.14
61109;BME280;46995;55.740;37.402;2022-09-12T13:55:46;99554.41;;;14.75;56.87
61109;BME280;46995;55.740;37.402;2022-09-12T13:58:22;99555.03;;;14.69;56.64
61109;BME280;46995;55.740;37.402;2022-09-12T14:01:05;99548.75;;;14.70;56.53
61109;BME280;46995;55.740;37.402;2022-09-12T14:03:32;99558.34;;;14.71;56.61
61109;BME280;46995;55.740;37.402;2022-09-12T14:06:17;99550.38;;;14.71;56.59
61109;BME280;46995;55.740;37.402;2022-09-12T14:08:44;99562.03;;;14.70;56.72
61109;BME280;46995;55.740;37.402;2022-09-12T14:11:14;99563.16;;;14.67;56.52
61109;BME280;46995;55.740;37.402;2022-09-12T14:13:43;99561.50;;;14.66;56.77
61109;BME280;46995;55.740;37.402;2022-09-12T14:16:10;99572.13;;;14.66;56.73
61109;BME280;46995;55.740;37.402;2022-09-12T14:18:37;99565.00;;;14.67;56.25
61109;BME280;46995;55.740;37.402;2022-09-12T14:23:47;99565.25;;;14.56;56.71
61109;BME280;46995;55.740;37.402;2022-09-12T14:26:14;99576.53;;;14.50;56.65
61109;BME280;46995;55.740;37.402;2022-09-12T14:28:44;99575.16;;;14.46;57.15
61109;BME280;46995;55.740;37.402;2022-09-12T14:31:31;99571.06;;;14.33;57.12
61109;BME280;46995;55.740;37.402;2022-09-12T14:34:08;99576.44;;;14.24;57.36
61109;BME280;46995;55.740;37.402;2022-09-12T14:36:38;99579.06;;;14.16;57.48
61109;BME280;46995;55.740;37.402;2022-09-12T14:39:05;99575.50;;;14.07;57.73
61109;BME280;46995;55.740;37.402;2022-09-12T14:41:35;99577.22;;;13.98;57.71
61109;BME280;46995;55.740;37.402;2022-09-12T14:44:03;99580.66;;;13.91;58.00
61109;BME280;46995;55.740;37.402;2022-09-12T14:46:39;99585.59;;;13.86;58.06
61109;BME280;46995;55.740;37.402;2022-09-12T14:52:03;99582.34;;;13.92;57.98
61109;BME280;46995;55.740;37.402;2022-09-12T14:56:56;99578.81;;;14.09;57.82
61109;BME280;46995;55.740;37.402;2022-09-12T14:59:26;99582.16;;;14.11;57.63
61109;BME280;46995;55.740;37.402;2022-09-12T15:04:37;99583.66;;;14.14;57.72
61109;BME280;46995;55.740;37.402;2022-09-12T15:09:47;99587.16;;;14.14;57.64
61109;BME280;46995;55.740;37.402;2022-09-12T15:12:13;99583.53;;;14.15;57.72
61109;BME280;46995;55.740;37.402;2022-09-12T15:14:39;99583.53;;;14.15;57.89
61109;BME280;46995;55.740;37.402;2022-09-12T15:17:05;99580.19;;;14.13;57.88
61109;BME280;46995;55.740;37.402;2022-09-12T15:19:30;99565.63;;;13.99;58.01
61109;BME280;46995;55.740;37.402;2022-09-12T15:21:56;99584.75;;;14.03;58.20
61109;BME280;46995;55.740;37.402;2022-09-12T15:24:22;99579.22;;;13.96;58.24
61109;BME280;46995;55.740;37.402;2022-09-12T15:26:48;99582.09;;;13.85;58.47
61109;BME280;46995;55.740;37.402;2022-09-12T15:29:13;99586.09;;;13.72;58.73
61109;BME280;46995;55.740;37.402;2022-09-12T15:31:39;99592.91;;;13.56;58.83
61109;BME280;46995;55.740;37.402;2022-09-12T15:34:05;99594.41;;;13.41;59.03
61109;BME280;46995;55.740;37.402;2022-09-12T15:36:31;99596.41;;;13.30;59.33
61109;BME280;46995;55.740;37.402;2022-09-12T15:38:57;99601.09;;;13.18;59.42
61109;BME280;46995;55.740;37.402;2022-09-12T15:41:32;99599.88;;;13.12;59.46
61109;BME280;46995;55.740;37.402;2022-09-12T15:43:59;99602.22;;;13.06;59.42
61109;BME280;46995;55.740;37.402;2022-09-12T15:46:25;99595.16;;;12.97;59.26
61109;BME280;46995;55.740;37.402;2022-09-12T15:48:52;99598.53;;;12.89;59.70
61109;BME280;46995;55.740;37.402;2022-09-12T15:51:18;99602.19;;;12.79;59.66
61109;BME280;46995;55.740;37.402;2022-09-12T15:53:44;99601.13;;;12.71;59.57
61109;BME280;46995;55.740;37.402;2022-09-12T15:56:17;99604.47;;;12.64;59.67
61109;BME280;46995;55.740;37.402;2022-09-12T15:58:43;99600.56;;;12.58;59.89
61109;BME280;46995;55.740;37.402;2022-09-12T16:01:12;99613.41;;;12.53;59.90
61109;BME280;46995;55.740;37.402;2022-09-12T16:03:37;99613.72;;;12.50;59.79
61109;BME280;46995;55.740;37.402;2022-09-12T16:06:03;99609.66;;;12.46;59.85